Time;durP1;ratioP1;P1;durP2;ratioP2;P2;SDS_P1;SDS_P2;PMS_P1;PMS_P2;Temp;Humidity;BMP_temperature;BMP_pressure;BME280_temperature;BME280_humidity;BME280_pressure;Samples;Min_cycle;Max_cycle;Signal;HPM_P1;HPM_P2
2023/09/11 08:06:45;;;;;;;;;;;;;;;7.50;100.00;99512.16;4989678;28;20379;-89
2023/09/11 08:09:11;;;;;;;;;;;;;;;7.55;100.00;99518.13;4994218;28;19977;-89
2023/09/11 08:11:39;;;;;;;;;;;;;;;7.45;100.00;99517.59;4993362;28;19917;-89
2023/09/11 08:14:07;;;;;;;;;;;;;;;7.54;100.00;99526.94;5014164;28;19922;-88
2023/09/11 08:16:32;;;;;;;;;;;;;;;7.57;100.00;99526.00;4996227;28;20052;-90
2023/09/11 08:19:00;;;;;;;;;;;;;;;7.63;100.00;99524.00;5012942;28;19945;-90
2023/09/11 08:21:25;;;;;;;;;;;;;;;7.61;100.00;99533.75;5014259;28;20422;-91
2023/09/11 08:23:51;;;;;;;;;;;;;;;7.68;100.00;99522.97;4996556;28;19913;-90
2023/09/11 08:26:19;;;;;;;;;;;;;;;7.71;100.00;99526.38;4996508;28;19922;-90
2023/09/11 08:28:44;;;;;;;;;;;;;;;7.72;100.00;99537.75;4995871;28;19917;-90
2023/09/11 08:31:09;;;;;;;;;;;;;;;7.80;100.00;99530.44;4996557;28;20360;-90
2023/09/11 08:33:37;;;;;;;;;;;;;;;7.77;100.00;99527.91;5011886;28;19924;-89
2023/09/11 08:36:03;;;;;;;;;;;;;;;7.82;100.00;99523.34;4995872;28;19920;-89
2023/09/11 08:38:55;;;;;;;;;;;;;;;7.81;100.00;99527.75;4996276;28;19917;-90
2023/09/11 08:41:25;;;;;;;;;;;;;;;7.76;100.00;99523.56;5014207;28;19917;-91
2023/09/11 08:43:51;;;;;;;;;;;;;;;7.80;100.00;99520.78;5013875;28;19917;-91
2023/09/11 08:46:17;;;;;;;;;;;;;;;7.79;100.00;99519.03;5013793;28;19925;-91
2023/09/11 08:48:44;;;;;;;;;;;;;;;7.82;100.00;99518.94;4994890;28;19917;-90
2023/09/11 08:51:17;;;;;;;;;;;;;;;7.84;100.00;99516.25;5013491;28;19971;-91
2023/09/11 08:53:47;;;;;;;;;;;;;;;7.75;100.00;99517.41;4995946;28;19921;-91
2023/09/11 08:56:18;;;;;;;;;;;;;;;7.82;100.00;99516.28;5013662;28;19917;-91
2023/09/11 08:58:43;;;;;;;;;;;;;;;7.81;100.00;99511.91;4995832;28;19929;-90
2023/09/11 09:01:20;;;;;;;;;;;;;;;7.94;100.00;99508.84;4995943;28;19918;-91
2023/09/11 09:03:48;;;;;;;;;;;;;;;7.97;100.00;99506.09;4993726;28;19921;-91
2023/09/11 09:06:35;;;;;;;;;;;;;;;7.91;100.00;99507.16;5028396;28;19944;-90
2023/09/11 09:09:02;;;;;;;;;;;;;;;8.01;100.00;99502.44;5012777;28;19952;-91
2023/09/11 09:11:31;;;;;;;;;;;;;;;7.96;100.00;99499.97;4995849;28;19922;-91
2023/09/11 09:13:57;;;;;;;;;;;;;;;8.00;100.00;99495.44;5012560;28;19922;-91
2023/09/11 09:16:34;;;;;;;;;;;;;;;8.08;100.00;99503.94;5011792;28;19921;-92
2023/09/11 09:28:33;;;;;;;;;;;;;;;8.01;100.00;99499.81;4993138;28;19964;-92
2023/09/11 09:31:11;;;;;;;;;;;;;;;;;;;;;
2023/09/11 09:34:03;;;;;;;;;;;;;;;7.99;100.00;99501.63;5012073;28;19914;-92
2023/09/11 09:36:37;;;;;;;;;;;;;;;8.01;100.00;99497.16;5040534;23;20303;-92
2023/09/11 09:39:15;;;;;;;;;;;;;;;;;;;;;
2023/09/11 09:42:14;;;;;;;;;;;;;;;8.03;100.00;99494.47;5023026;28;20382;-91
2023/09/11 09:44:55;;;;;;;;;;;;;;;8.08;100.00;99489.88;5050665;23;20384;-92
2023/09/11 09:47:31;;;;;;;;;;;;;;;8.12;100.00;99484.44;5047231;28;19929;-95
2023/09/11 09:53:22;;;;;;;;;;;;;;;8.06;100.00;99481.13;5128263;23;19930;-92
2023/09/11 09:55:50;;;;;;;;;;;;;;;8.07;100.00;99481.09;5097612;23;19925;-92
2023/09/11 09:58:17;;;;;;;;;;;;;;;8.07;100.00;99489.00;4993518;28;20008;-92
2023/09/11 10:00:54;;;;;;;;;;;;;;;8.08;100.00;99485.44;4985249;28;19929;-91
2023/09/11 10:03:42;;;;;;;;;;;;;;;8.14;100.00;99484.38;4983577;28;19989;-89
2023/09/11 10:09:17;;;;;;;;;;;;;;;8.14;100.00;99471.19;4999485;28;19917;-91
2023/09/11 10:12:05;;;;;;;;;;;;;;;8.14;100.00;99464.13;5000482;28;20336;-91
2023/09/11 10:23:20;;;;;;;;;;;;;;;10.79;100.00;99448.34;5048573;22;20008;-88
2023/09/11 10:25:56;;;;;;;;;;;;;;;9.15;100.00;99441.66;5014214;28;19948;-90
2023/09/11 10:28:31;;;;;;;;;;;;;;;8.64;100.00;99446.38;5013797;28;19995;-91
2023/09/11 10:31:04;;;;;;;;;;;;;;;8.58;100.00;99441.34;5031602;28;19917;-90
2023/09/11 10:38:37;;;;;;;;;;;;;;;8.43;100.00;99433.13;5040008;28;19925;-88
2023/09/11 10:41:13;;;;;;;;;;;;;;;8.46;100.00;99433.00;5041398;28;20363;-90
2023/09/11 10:43:51;;;;;;;;;;;;;;;8.48;100.00;99425.88;5015794;28;19960;-90
2023/09/11 10:46:30;;;;;;;;;;;;;;;8.39;100.00;99422.69;5015752;28;19920;-90
2023/09/11 10:48:58;;;;;;;;;;;;;;;8.36;100.00;99414.00;5013816;28;19921;-89
2023/09/11 10:51:47;;;;;;;;;;;;;;;8.41;100.00;99420.84;5014838;28;20011;-91
2023/09/11 10:56:57;;;;;;;;;;;;;;;8.42;100.00;99412.88;5170387;23;19929;-90
2023/09/11 11:02:29;;;;;;;;;;;;;;;8.39;100.00;99405.06;5034883;28;20020;-90
2023/09/11 11:05:12;;;;;;;;;;;;;;;8.45;100.00;99412.78;5026476;28;19925;-91
2023/09/11 11:07:38;;;;;;;;;;;;;;;8.56;100.00;99415.00;5027300;28;20009;-91
2023/09/11 11:10:16;;;;;;;;;;;;;;;;;;;;;
2023/09/11 11:18:17;;;;;;;;;;;;;;;8.35;100.00;99391.16;5476179;22;19937;-91
2023/09/11 11:21:09;;;;;;;;;;;;;;;8.43;100.00;99388.22;5017294;28;19924;-91
2023/09/11 11:24:16;;;;;;;;;;;;;;;8.52;100.00;99393.16;5016298;28;19918;-91
2023/09/11 11:26:48;;;;;;;;;;;;;;;8.47;100.00;99389.84;5031868;28;19917;-91
2023/09/11 11:29:17;;;;;;;;;;;;;;;8.46;100.00;99382.84;5016970;28;20280;-91
2023/09/11 11:34:29;;;;;;;;;;;;;;;8.63;100.00;99373.34;5180815;22;19925;-90
2023/09/11 11:39:37;;;;;;;;;;;;;;;8.69;100.00;99375.75;5415173;22;19926;-90
2023/09/11 11:42:26;;;;;;;;;;;;;;;8.59;100.00;99371.78;4996883;28;20501;-90
2023/09/11 11:45:05;;;;;;;;;;;;;;;8.56;100.00;99378.03;5482479;23;19930;-90
2023/09/11 11:47:34;;;;;;;;;;;;;;;8.58;100.00;99376.19;4971105;28;19949;-91
2023/09/11 11:50:14;;;;;;;;;;;;;;;8.59;100.00;99377.06;4985862;28;19917;-90
2023/09/11 11:52:48;;;;;;;;;;;;;;;8.56;100.00;99377.19;4977286;28;19922;-90
2023/09/11 11:55:23;;;;;;;;;;;;;;;8.58;100.00;99368.25;4977263;28;20427;-91
2023/09/11 11:57:54;;;;;;;;;;;;;;;8.63;100.00;99370.72;4993188;28;19922;-90
2023/09/11 12:00:22;;;;;;;;;;;;;;;8.61;100.00;99372.56;4993042;28;19926;-91
2023/09/11 12:02:48;;;;;;;;;;;;;;;8.65;100.00;99368.88;5040178;22;19925;-92
2023/09/11 12:05:24;;;;;;;;;;;;;;;8.65;100.00;99372.38;5029552;28;19932;-90
2023/09/11 12:07:55;;;;;;;;;;;;;;;8.59;100.00;99369.97;4996780;28;19965;-90
2023/09/11 12:10:37;;;;;;;;;;;;;;;8.65;100.00;99368.88;4971803;28;19922;-91
2023/09/11 12:13:11;;;;;;;;;;;;;;;8.76;100.00;99368.41;4972902;28;19929;-91
2023/09/11 12:15:42;;;;;;;;;;;;;;;8.65;100.00;99369.72;4972724;28;19965;-91
2023/09/11 12:18:10;;;;;;;;;;;;;;;8.66;100.00;99363.53;4955552;28;19918;-91
2023/09/11 12:20:38;;;;;;;;;;;;;;;8.70;100.00;99364.25;4956675;28;19918;-91
2023/09/11 12:23:08;;;;;;;;;;;;;;;8.68;100.00;99366.09;4956485;28;19925;-91
2023/09/11 12:25:36;;;;;;;;;;;;;;;8.71;100.00;99366.84;4972736;28;20020;-88
2023/09/11 12:31:46;;;;;;;;;;;;;;;;;;;;;
2023/09/11 12:34:11;;;;;;;;;;;;;;;8.66;100.00;99357.38;4974353;28;19921;-92
2023/09/11 12:37:06;;;;;;;;;;;;;;;8.69;100.00;99357.25;4996294;28;20004;-93
2023/09/11 12:46:01;;;;;;;;;;;;;;;9.19;100.00;99346.31;5259249;23;20315;-93
2023/09/11 12:48:28;;;;;;;;;;;;;;;9.79;100.00;99348.00;5031672;28;19925;-92
2023/09/11 12:50:54;;;;;;;;;;;;;;;9.76;100.00;99353.44;5027301;28;20430;-89
2023/09/11 12:53:20;;;;;;;;;;;;;;;9.19;100.00;99348.94;5050224;28;19917;-91
2023/09/11 12:55:47;;;;;;;;;;;;;;;9.06;100.00;99340.69;5053491;28;19920;-88
2023/09/11 12:58:12;;;;;;;;;;;;;;;8.94;100.00;99337.72;5035243;28;19916;-92
2023/09/11 13:00:42;;;;;;;;;;;;;;;8.88;100.00;99331.75;5046501;28;19971;-91
2023/09/11 13:03:08;;;;;;;;;;;;;;;8.98;100.00;99334.00;5016650;28;20406;-90
2023/09/11 13:05:34;;;;;;;;;;;;;;;9.56;100.00;99334.06;5029749;28;19996;-90
2023/09/11 13:08:00;;;;;;;;;;;;;;;9.90;100.00;99331.63;5048954;28;19917;-92
2023/09/11 13:10:26;;;;;;;;;;;;;;;9.72;100.00;99330.72;5046240;28;20398;-90
2023/09/11 13:13:00;;;;;;;;;;;;;;;9.30;100.00;99323.81;5025273;28;20372;-93
2023/09/11 13:15:26;;;;;;;;;;;;;;;9.10;100.00;99314.97;5049928;28;19934;-91
2023/09/11 13:20:37;;;;;;;;;;;;;;;9.04;100.00;99308.16;5040055;28;20291;-91
2023/09/11 13:23:02;;;;;;;;;;;;;;;9.05;100.00;99306.41;5049816;28;19916;-89
2023/09/11 13:25:28;;;;;;;;;;;;;;;8.95;100.00;99299.78;5050013;28;19925;-90
2023/09/11 13:27:54;;;;;;;;;;;;;;;9.03;100.00;99295.03;5042482;28;20019;-89
2023/09/11 13:30:21;;;;;;;;;;;;;;;9.02;100.00;99298.63;5028807;28;20408;-88
2023/09/11 13:32:47;;;;;;;;;;;;;;;8.97;100.00;99290.03;5044955;28;20015;-90
2023/09/11 13:35:12;;;;;;;;;;;;;;;8.99;100.00;99296.09;5047048;28;20015;-89
2023/09/11 13:38:06;;;;;;;;;;;;;;;8.93;100.00;99289.28;5027024;28;19964;-91
2023/09/11 13:40:33;;;;;;;;;;;;;;;8.92;100.00;99284.94;5039314;28;19924;-90
2023/09/11 13:42:59;;;;;;;;;;;;;;;8.88;100.00;99283.34;5042519;28;19920;-89
2023/09/11 13:45:24;;;;;;;;;;;;;;;8.89;100.00;99282.44;5045448;28;19975;-92
2023/09/11 13:47:52;;;;;;;;;;;;;;;9.30;100.00;99286.78;5031762;28;20295;-90
2023/09/11 13:50:19;;;;;;;;;;;;;;;9.77;100.00;99283.72;5024729;28;19962;-88
2023/09/11 13:52:45;;;;;;;;;;;;;;;9.95;100.00;99281.97;5032556;28;20004;-90
2023/09/11 13:55:13;;;;;;;;;;;;;;;9.47;100.00;99286.88;5026983;28;20059;-90
2023/09/11 13:57:38;;;;;;;;;;;;;;;9.74;100.00;99290.00;5031690;28;19921;-89
2023/09/11 14:00:04;;;;;;;;;;;;;;;9.99;100.00;99283.56;5046976;28;20299;-89
2023/09/11 14:02:31;;;;;;;;;;;;;;;10.05;100.00;99280.63;5022560;28;20489;-88
2023/09/11 14:04:56;;;;;;;;;;;;;;;9.49;100.00;99282.34;5052003;28;19920;-90
2023/09/11 14:07:45;;;;;;;;;;;;;;;9.31;100.00;99280.59;5052076;28;19917;-92
2023/09/11 14:10:33;;;;;;;;;;;;;;;9.20;100.00;99273.13;5016617;28;19918;-90
2023/09/11 14:13:25;;;;;;;;;;;;;;;;;;;;;
2023/09/11 14:16:14;;;;;;;;;;;;;;;;;;;;;
2023/09/11 14:18:59;;;;;;;;;;;;;;;9.06;100.00;99261.41;5041317;28;20468;-92
2023/09/11 14:21:34;;;;;;;;;;;;;;;9.14;100.00;99262.84;5032949;28;20429;-90
2023/09/11 14:24:29;;;;;;;;;;;;;;;8.98;100.00;99257.38;5020218;28;20007;-91
2023/09/11 14:27:10;;;;;;;;;;;;;;;;;;;;;
2023/09/11 14:30:05;;;;;;;;;;;;;;;;;;;;;
2023/09/11 14:36:08;;;;;;;;;;;;;;;8.97;100.00;99250.41;4966110;28;19918;-93
2023/09/11 14:39:16;;;;;;;;;;;;;;;;;;;;;
2023/09/11 14:42:12;;;;;;;;;;;;;;;8.96;100.00;99248.66;5044715;28;19917;-91
2023/09/11 14:47:35;;;;;;;;;;;;;;;8.88;100.00;99247.22;5023058;28;20445;-89
2023/09/11 14:59:22;;;;;;;;;;;;;;;8.93;100.00;99238.25;5038208;28;19928;-87
2023/09/11 15:01:57;;;;;;;;;;;;;;;;;;;;;
2023/09/11 15:04:28;;;;;;;;;;;;;;;8.93;100.00;99225.03;5046791;28;19927;-91
2023/09/11 15:07:11;;;;;;;;;;;;;;;8.91;100.00;99231.22;5044097;28;19958;-91
2023/09/11 15:09:41;;;;;;;;;;;;;;;8.95;100.00;99229.31;5053512;28;19923;-91
2023/09/11 15:12:07;;;;;;;;;;;;;;;8.86;100.00;99232.38;5024229;28;19920;-86
2023/09/11 15:14:37;;;;;;;;;;;;;;;8.87;100.00;99224.38;5054472;28;19927;-90
2023/09/11 15:17:12;;;;;;;;;;;;;;;8.90;100.00;99226.88;5045661;28;20387;-94
2023/09/11 15:22:43;;;;;;;;;;;;;;;8.85;100.00;99220.94;5029922;28;19986;-89
2023/09/11 15:25:08;;;;;;;;;;;;;;;8.87;100.00;99220.84;5049052;28;20352;-90
2023/09/11 15:27:33;;;;;;;;;;;;;;;8.82;100.00;99215.81;5044422;28;19951;-89
2023/09/11 15:29:59;;;;;;;;;;;;;;;8.88;100.00;99215.50;5033795;28;19939;-92
2023/09/11 15:32:24;;;;;;;;;;;;;;;8.85;100.00;99217.44;5052135;28;19928;-88
2023/09/11 15:37:55;;;;;;;;;;;;;;;8.86;100.00;99209.44;5069497;23;19939;-87
2023/09/11 15:40:29;;;;;;;;;;;;;;;8.87;100.00;99210.28;5054603;28;19916;-89
2023/09/11 15:42:54;;;;;;;;;;;;;;;8.89;100.00;99211.94;5054740;28;19913;-89
2023/09/11 15:45:22;;;;;;;;;;;;;;;8.86;100.00;99217.38;5056407;28;20003;-91
2023/09/11 15:47:50;;;;;;;;;;;;;;;8.87;100.00;99218.22;5054441;28;19917;-90
2023/09/11 15:50:15;;;;;;;;;;;;;;;8.90;100.00;99212.81;5073363;28;19939;-89
2023/09/11 15:52:42;;;;;;;;;;;;;;;8.94;100.00;99218.81;5054529;28;19917;-90
2023/09/11 15:58:46;;;;;;;;;;;;;;;8.98;100.00;99209.81;5053796;23;19978;-88
2023/09/11 16:01:15;;;;;;;;;;;;;;;9.01;100.00;99214.97;5036429;28;19917;-89
2023/09/11 16:06:43;;;;;;;;;;;;;;;8.98;100.00;99209.81;5059092;23;19982;-88
2023/09/11 16:09:08;;;;;;;;;;;;;;;8.97;100.00;99211.59;5036398;28;19921;-91
2023/09/11 16:11:36;;;;;;;;;;;;;;;8.94;100.00;99208.25;5039012;28;19924;-88
2023/09/11 16:14:02;;;;;;;;;;;;;;;8.88;100.00;99212.88;5054088;28;20008;-93
2023/09/11 16:16:29;;;;;;;;;;;;;;;8.90;100.00;99210.16;5054161;28;20011;-90
2023/09/11 16:18:56;;;;;;;;;;;;;;;8.93;100.00;99217.94;5034603;28;19942;-89
2023/09/11 16:21:36;;;;;;;;;;;;;;;8.95;100.00;99208.19;5035413;28;19963;-90
2023/09/11 16:24:07;;;;;;;;;;;;;;;8.97;100.00;99200.19;5035276;28;20008;-89
2023/09/11 16:27:14;;;;;;;;;;;;;;;;;;;;;
2023/09/11 16:32:13;;;;;;;;;;;;;;;8.95;100.00;99199.38;5219638;23;19925;-89
2023/09/11 16:34:38;;;;;;;;;;;;;;;8.96;100.00;99203.75;5014479;28;19974;-90
2023/09/11 16:37:13;;;;;;;;;;;;;;;9.10;100.00;99209.25;5016459;28;19917;-91
2023/09/11 16:39:41;;;;;;;;;;;;;;;9.61;100.00;99215.66;5020313;28;19917;-90
2023/09/11 16:42:11;;;;;;;;;;;;;;;9.97;100.00;99213.94;5016051;28;19970;-90
2023/09/11 16:44:50;;;;;;;;;;;;;;;9.72;100.00;99211.66;5016306;28;19917;-94
2023/09/11 16:47:27;;;;;;;;;;;;;;;9.35;100.00;99208.97;5034113;28;20019;-89
2023/09/11 16:49:58;;;;;;;;;;;;;;;9.19;100.00;99216.78;5033468;28;19925;-88
2023/09/11 16:52:35;;;;;;;;;;;;;;;9.16;100.00;99208.97;5015789;28;20343;-88
2023/09/11 16:58:18;;;;;;;;;;;;;;;9.09;100.00;99210.19;4971691;23;20562;-88
2023/09/11 17:00:46;;;;;;;;;;;;;;;9.08;100.00;99200.56;5005671;28;19975;-89
2023/09/11 17:09:26;;;;;;;;;;;;;;;9.09;100.00;99196.97;5023229;23;19937;-88
2023/09/11 17:11:51;;;;;;;;;;;;;;;9.01;100.00;99199.09;5019397;28;19932;-89
2023/09/11 17:14:17;;;;;;;;;;;;;;;9.01;100.00;99199.97;5005366;28;19921;-89
2023/09/11 17:16:45;;;;;;;;;;;;;;;8.95;100.00;99197.63;4998140;28;19925;-86
2023/09/11 17:19:12;;;;;;;;;;;;;;;9.01;100.00;99199.09;5011801;28;19928;-87
2023/09/11 17:24:48;;;;;;;;;;;;;;;8.97;100.00;99197.56;5022176;28;19920;-90
2023/09/11 17:30:41;;;;;;;;;;;;;;;8.96;100.00;99190.53;5006304;23;19920;-89
2023/09/11 17:36:12;;;;;;;;;;;;;;;9.01;100.00;99196.47;5048557;23;19979;-92
2023/09/11 17:38:37;;;;;;;;;;;;;;;9.08;100.00;99192.63;5027192;23;19933;-90
2023/09/11 17:41:05;;;;;;;;;;;;;;;9.03;100.00;99197.25;5022417;28;19982;-91
2023/09/11 17:43:31;;;;;;;;;;;;;;;9.07;100.00;99193.53;5022898;28;19921;-90
2023/09/11 17:45:59;;;;;;;;;;;;;;;9.04;100.00;99196.31;5108104;23;20354;-89
2023/09/11 17:48:45;;;;;;;;;;;;;;;9.02;100.00;99193.75;5039460;28;20016;-89
2023/09/11 17:53:50;;;;;;;;;;;;;;;8.95;100.00;99188.81;5047620;23;20358;-89
2023/09/11 17:56:18;;;;;;;;;;;;;;;8.98;100.00;99194.81;4967088;28;19922;-93
2023/09/11 17:58:46;;;;;;;;;;;;;;;9.07;100.00;99196.19;4961100;28;19919;-91
2023/09/11 18:01:11;;;;;;;;;;;;;;;9.01;100.00;99199.97;4962539;28;20416;-87
2023/09/11 18:03:41;;;;;;;;;;;;;;;9.07;100.00;99198.84;4960825;28;19942;-90
2023/09/11 18:06:06;;;;;;;;;;;;;;;9.04;100.00;99198.97;4961181;28;20554;-88
2023/09/11 18:08:31;;;;;;;;;;;;;;;9.07;100.00;99197.03;4988601;23;19933;-90
2023/09/11 18:10:57;;;;;;;;;;;;;;;9.00;100.00;99198.25;4994429;28;20420;-88
2023/09/11 18:16:08;;;;;;;;;;;;;;;9.15;100.00;99194.03;5038645;23;19932;-89
2023/09/11 18:18:34;;;;;;;;;;;;;;;9.08;100.00;99195.28;5012955;28;20250;-87
2023/09/11 18:21:02;;;;;;;;;;;;;;;9.05;100.00;99203.34;5032275;28;20360;-90
2023/09/11 18:23:29;;;;;;;;;;;;;;;9.21;100.00;99206.97;5031687;28;19960;-90
2023/09/11 18:25:57;;;;;;;;;;;;;;;9.68;100.00;99212.72;5031943;28;20439;-91
2023/09/11 18:28:22;;;;;;;;;;;;;;;10.06;100.00;99210.84;5032352;28;19913;-89
2023/09/11 18:30:47;;;;;;;;;;;;;;;10.00;100.00;99211.16;5031825;28;19921;-90
2023/09/11 18:33:23;;;;;;;;;;;;;;;9.56;100.00;99212.41;5013132;28;19924;-90
2023/09/11 18:36:21;;;;;;;;;;;;;;;;;;;;;
2023/09/11 18:38:47;;;;;;;;;;;;;;;9.32;100.00;99216.19;5031374;28;19917;-89
2023/09/11 18:41:12;;;;;;;;;;;;;;;9.30;100.00;99212.75;5015118;28;20447;-90
2023/09/11 18:43:38;;;;;;;;;;;;;;;9.29;100.00;99214.56;5014357;28;19921;-89
2023/09/11 18:46:03;;;;;;;;;;;;;;;9.32;100.00;99218.81;5031792;28;19924;-89
2023/09/11 18:48:31;;;;;;;;;;;;;;;9.26;100.00;99222.63;5030737;28;19921;-92
2023/09/11 18:50:56;;;;;;;;;;;;;;;9.26;100.00;99219.97;5015371;28;20040;-90
2023/09/11 18:53:21;;;;;;;;;;;;;;;9.24;100.00;99227.13;5032081;28;20379;-89
2023/09/11 18:55:47;;;;;;;;;;;;;;;9.26;100.00;99226.13;5013888;28;20269;-90
2023/09/11 18:58:12;;;;;;;;;;;;;;;9.24;100.00;99227.13;5031520;28;19921;-89
2023/09/11 19:00:39;;;;;;;;;;;;;;;9.21;100.00;99228.13;5031646;28;19996;-89
2023/09/11 19:03:04;;;;;;;;;;;;;;;9.19;100.00;99221.19;5012562;28;20031;-89
2023/09/11 19:05:29;;;;;;;;;;;;;;;9.14;100.00;99226.69;5014082;28;20051;-89
2023/09/11 19:08:04;;;;;;;;;;;;;;;9.56;100.00;99232.72;5031330;28;19917;-89
2023/09/11 19:10:31;;;;;;;;;;;;;;;10.09;100.00;99236.31;5013257;28;20368;-89
2023/09/11 19:12:57;;;;;;;;;;;;;;;10.23;100.00;99235.59;5031280;28;20435;-89
2023/09/11 19:15:22;;;;;;;;;;;;;;;9.73;100.00;99242.47;5031392;28;19921;-88
2023/09/11 19:17:49;;;;;;;;;;;;;;;9.58;100.00;99234.31;5031099;28;20606;-89
2023/09/11 19:20:19;;;;;;;;;;;;;;;9.50;100.00;99233.00;5035250;28;20031;-88
2023/09/11 19:26:05;;;;;;;;;;;;;;;9.40;100.00;99227.28;4945233;29;19981;-88
2023/09/11 19:28:32;;;;;;;;;;;;;;;9.34;100.00;99232.84;5016066;28;19917;-88
2023/09/11 19:34:48;;;;;;;;;;;;;;;9.46;100.00;99226.97;4883731;29;19920;-88
2023/09/11 19:37:14;;;;;;;;;;;;;;;10.08;100.00;99232.78;5008210;28;19932;-88
2023/09/11 19:40:07;;;;;;;;;;;;;;;10.36;100.00;99237.59;5016917;28;19924;-88
2023/09/11 19:42:32;;;;;;;;;;;;;;;10.05;100.00;99234.75;5016297;28;20291;-88
2023/09/11 19:44:58;;;;;;;;;;;;;;;9.76;100.00;99235.22;5034886;28;19921;-90
2023/09/11 19:47:24;;;;;;;;;;;;;;;9.62;100.00;99233.25;5034673;28;19925;-88
2023/09/11 19:49:49;;;;;;;;;;;;;;;9.55;100.00;99223.03;5032997;28;19964;-88
2023/09/11 19:52:14;;;;;;;;;;;;;;;9.54;100.00;99227.50;5016895;28;20352;-88
2023/09/11 19:54:39;;;;;;;;;;;;;;;9.51;100.00;99229.41;5034473;28;19917;-86
2023/09/11 19:57:05;;;;;;;;;;;;;;;9.46;100.00;99224.31;5016808;28;19921;-87
2023/09/11 19:59:32;;;;;;;;;;;;;;;9.36;100.00;99221.25;5034734;28;19917;-88
2023/09/11 20:01:57;;;;;;;;;;;;;;;9.51;100.00;99221.47;5034365;28;20400;-88
2023/09/11 20:04:23;;;;;;;;;;;;;;;9.43;100.00;99222.69;5015501;28;19925;-87
2023/09/11 20:06:49;;;;;;;;;;;;;;;9.39;100.00;99218.47;5034175;28;19918;-87
2023/09/11 20:09:14;;;;;;;;;;;;;;;9.44;100.00;99223.53;5034572;28;19960;-86
2023/09/11 20:11:39;;;;;;;;;;;;;;;9.37;100.00;99214.19;5034243;28;19968;-88
2023/09/11 20:14:05;;;;;;;;;;;;;;;9.37;100.00;99208.91;5016293;28;20403;-88
2023/09/11 20:16:30;;;;;;;;;;;;;;;9.31;100.00;99199.47;5016493;28;20000;-88
2023/09/11 20:18:56;;;;;;;;;;;;;;;9.34;100.00;99190.56;5014849;28;19921;-88
2023/09/11 20:21:21;;;;;;;;;;;;;;;9.35;100.00;99197.53;5034432;28;19972;-89
2023/09/11 20:23:48;;;;;;;;;;;;;;;9.39;100.00;99210.53;5016403;28;19921;-89
2023/09/11 20:26:14;;;;;;;;;;;;;;;9.34;100.00;99214.34;5034321;28;19917;-89
2023/09/11 20:28:39;;;;;;;;;;;;;;;9.36;100.00;99221.25;5033943;28;19928;-88
2023/09/11 20:31:09;;;;;;;;;;;;;;;9.73;100.00;99218.66;5014929;28;19928;-88
2023/09/11 20:33:35;;;;;;;;;;;;;;;10.24;100.00;99209.06;5031687;28;19928;-88
2023/09/11 20:36:01;;;;;;;;;;;;;;;10.46;100.00;99208.84;5033695;28;19924;-88
2023/09/11 20:38:26;;;;;;;;;;;;;;;9.98;100.00;99208.56;5015997;28;19921;-89
2023/09/11 20:40:51;;;;;;;;;;;;;;;9.63;100.00;99213.78;5015616;28;19917;-88
2023/09/11 20:43:16;;;;;;;;;;;;;;;9.68;100.00;99221.50;5033648;28;19925;-88
2023/09/11 20:45:42;;;;;;;;;;;;;;;9.59;100.00;99220.19;5033671;28;19964;-88
2023/09/11 20:48:07;;;;;;;;;;;;;;;9.89;100.00;99219.63;5014832;28;20478;-87
2023/09/11 20:50:32;;;;;;;;;;;;;;;10.30;100.00;99219.34;5032371;28;20435;-89
2023/09/11 20:52:58;;;;;;;;;;;;;;;10.56;100.00;99218.97;5013581;28;19933;-86
2023/09/11 20:55:30;;;;;;;;;;;;;;;10.02;100.00;99225.19;5033272;28;19928;-95
2023/09/11 20:57:56;;;;;;;;;;;;;;;10.19;100.00;99226.97;5015809;28;20527;-91
2023/09/11 21:00:21;;;;;;;;;;;;;;;10.52;100.00;99236.84;5031282;28;19932;-89
2023/09/11 21:02:47;;;;;;;;;;;;;;;10.48;100.00;99240.56;5020225;28;19925;-89
2023/09/11 21:05:14;;;;;;;;;;;;;;;9.99;100.00;99230.63;5022748;28;20373;-89
2023/09/11 21:07:40;;;;;;;;;;;;;;;9.89;100.00;99218.75;4989116;28;19921;-90
2023/09/11 21:10:05;;;;;;;;;;;;;;;9.76;100.00;99229.94;5020822;28;19959;-89
2023/09/11 21:12:30;;;;;;;;;;;;;;;9.74;100.00;99225.66;5005002;28;20273;-89
2023/09/11 21:14:56;;;;;;;;;;;;;;;9.81;100.00;99220.00;5023340;28;19991;-89
2023/09/11 21:17:21;;;;;;;;;;;;;;;10.34;100.00;99230.69;5022028;28;19937;-88
2023/09/11 21:19:46;;;;;;;;;;;;;;;10.63;100.00;99236.28;5022281;28;19917;-89
2023/09/11 21:22:12;;;;;;;;;;;;;;;10.28;100.00;99233.59;5021454;28;20052;-89
2023/09/11 21:24:37;;;;;;;;;;;;;;;10.01;100.00;99231.41;5004767;28;19924;-89
2023/09/11 21:27:02;;;;;;;;;;;;;;;9.88;100.00;99233.78;5022656;28;20009;-89
2023/09/11 21:29:27;;;;;;;;;;;;;;;9.74;100.00;99247.69;5023151;28;19943;-88
2023/09/11 21:31:53;;;;;;;;;;;;;;;9.74;100.00;99252.13;5005722;28;20262;-89
2023/09/11 21:34:18;;;;;;;;;;;;;;;9.64;100.00;99244.63;5002388;28;19960;-88
2023/09/11 21:36:43;;;;;;;;;;;;;;;9.64;100.00;99252.56;4996886;28;20471;-88
2023/09/11 21:39:08;;;;;;;;;;;;;;;9.64;100.00;99247.25;5002816;28;20015;-89
2023/09/11 21:41:34;;;;;;;;;;;;;;;9.56;100.00;99249.41;5020831;28;20396;-88
2023/09/11 21:43:59;;;;;;;;;;;;;;;9.63;100.00;99242.91;5021247;28;19921;-88
2023/09/11 21:46:24;;;;;;;;;;;;;;;9.53;100.00;99249.56;5002888;28;20032;-89
2023/09/11 21:48:49;;;;;;;;;;;;;;;9.52;100.00;99244.34;5003550;28;19921;-88
2023/09/11 21:51:15;;;;;;;;;;;;;;;9.51;100.00;99238.22;5001929;28;19926;-88
2023/09/11 21:53:40;;;;;;;;;;;;;;;9.48;100.00;99238.34;5021349;28;19921;-88
2023/09/11 21:56:06;;;;;;;;;;;;;;;9.49;100.00;99234.75;5003511;28;19925;-87
2023/09/11 21:58:31;;;;;;;;;;;;;;;9.48;100.00;99233.06;5004490;28;19924;-88
2023/09/11 22:00:56;;;;;;;;;;;;;;;9.54;100.00;99234.53;5020639;28;19968;-89
2023/09/11 22:03:22;;;;;;;;;;;;;;;9.48;100.00;99241.00;5021574;28;20442;-88
2023/09/11 22:05:47;;;;;;;;;;;;;;;9.59;100.00;99243.13;5020784;28;19921;-88
2023/09/11 22:08:12;;;;;;;;;;;;;;;9.51;100.00;99245.25;5022031;28;19945;-88
2023/09/11 22:10:41;;;;;;;;;;;;;;;9.52;100.00;99258.41;5021173;28;19956;-89
2023/09/11 22:13:06;;;;;;;;;;;;;;;9.80;100.00;99257.13;5021457;28;20007;-88
2023/09/11 22:15:34;;;;;;;;;;;;;;;10.29;100.00;99256.50;5021974;28;20021;-88
2023/09/11 22:17:59;;;;;;;;;;;;;;;10.58;100.00;99251.53;5001994;28;19971;-88
2023/09/11 22:20:24;;;;;;;;;;;;;;;10.14;100.00;99242.22;5003481;28;20365;-88
2023/09/11 22:22:49;;;;;;;;;;;;;;;9.91;100.00;99238.94;5002281;28;19922;-88
2023/09/11 22:25:15;;;;;;;;;;;;;;;9.76;100.00;99237.03;5021995;28;20304;-88
2023/09/11 22:27:40;;;;;;;;;;;;;;;9.70;100.00;99239.97;5022256;28;19917;-88
2023/09/11 22:30:06;;;;;;;;;;;;;;;9.83;100.00;99233.16;5021159;28;20016;-88
2023/09/11 22:32:31;;;;;;;;;;;;;;;10.43;100.00;99234.66;5023408;28;19924;-88
2023/09/11 22:34:57;;;;;;;;;;;;;;;10.63;100.00;99238.94;5003879;28;20323;-88
2023/09/11 22:37:22;;;;;;;;;;;;;;;10.19;100.00;99232.25;5022110;28;20293;-88
2023/09/11 22:39:47;;;;;;;;;;;;;;;9.97;100.00;99232.47;5022097;28;19963;-87
2023/09/11 22:42:13;;;;;;;;;;;;;;;9.86;100.00;99234.78;5021767;28;20372;-88
2023/09/11 22:44:38;;;;;;;;;;;;;;;9.74;100.00;99236.25;5021842;28;19921;-88
2023/09/11 22:47:04;;;;;;;;;;;;;;;9.68;100.00;99233.91;5022353;28;19917;-87
2023/09/11 22:49:30;;;;;;;;;;;;;;;9.69;100.00;99230.34;5020868;28;19926;-89
2023/09/11 22:51:56;;;;;;;;;;;;;;;9.64;100.00;99226.09;5021636;28;19928;-90
2023/09/11 22:54:24;;;;;;;;;;;;;;;9.66;100.00;99214.59;5024622;28;19918;-89
2023/09/11 22:56:59;;;;;;;;;;;;;;;;;;;;;
2023/09/11 22:59:24;;;;;;;;;;;;;;;9.70;100.00;99219.69;5027006;28;19924;-93
